createdAt,value
2023-05-18T00:02:48.395Z,102503.44
2023-05-18T00:07:51.212Z,102504.78
2023-05-18T00:12:53.794Z,102506.44
2023-05-18T00:17:58.562Z,102505.94
2023-05-18T00:23:02.307Z,102508.47
2023-05-18T00:28:05.153Z,102506.91
2023-05-18T00:33:09.139Z,102516.03
2023-05-18T00:38:12.090Z,102508.34
2023-05-18T00:43:14.617Z,102521.78
2023-05-18T00:48:18.582Z,102515.50
2023-05-18T00:53:21.152Z,102516.25
2023-05-18T00:58:23.729Z,102515.81
2023-05-18T01:03:30.184Z,102515.81
2023-05-18T01:08:33.908Z,102520.13
2023-05-18T01:13:42.277Z,102528.09
2023-05-18T01:18:54.861Z,102518.44
2023-05-18T01:24:10.151Z,102531.91
2023-05-18T01:29:15.737Z,102529.56
2023-05-18T01:34:18.405Z,102531.25
2023-05-18T01:39:21.021Z,102532.28
2023-05-18T01:44:29.997Z,102535.47
2023-05-18T01:49:37.157Z,102539.78
2023-05-18T01:54:44.081Z,102539.28
2023-05-18T01:59:49.122Z,102541.66
2023-05-18T02:04:51.643Z,102543.59
2023-05-18T02:09:54.205Z,102546.47
2023-05-18T02:14:58.369Z,102543.94
2023-05-18T02:20:00.920Z,102548.91
2023-05-18T02:25:04.127Z,102551.94
2023-05-18T02:30:09.489Z,102551.19
2023-05-18T02:35:12.023Z,102564.38
2023-05-18T02:40:15.967Z,102564.97
2023-05-18T02:45:20.875Z,102567.41
2023-05-18T02:50:23.398Z,102566.00
2023-05-18T02:55:25.923Z,102557.78
2023-05-18T03:00:30.601Z,102562.38
2023-05-18T03:05:33.152Z,102568.25
2023-05-18T03:10:37.016Z,102570.06
2023-05-18T03:15:41.573Z,102564.13
2023-05-18T03:20:44.786Z,102566.22
2023-05-18T03:25:47.384Z,102572.75
2023-05-18T03:30:51.266Z,102581.34
2023-05-18T03:35:54.602Z,102573.00
2023-05-18T03:40:57.208Z,102569.66
2023-05-18T03:46:01.146Z,102577.47
2023-05-18T03:51:03.729Z,102579.16
2023-05-18T03:56:06.577Z,102582.81
2023-05-18T04:01:10.644Z,102588.34
2023-05-18T04:06:13.249Z,102584.59
2023-05-18T04:11:15.996Z,102587.81
2023-05-18T04:16:21.858Z,102592.34
2023-05-18T04:21:24.416Z,102604.88
2023-05-18T04:26:26.948Z,102600.66
2023-05-18T04:31:30.981Z,102608.13
2023-05-18T04:36:35.033Z,102612.66
2023-05-18T04:41:37.863Z,102620.47
2023-05-18T04:46:41.713Z,102625.81
2023-05-18T04:51:44.258Z,102619.78
2023-05-18T04:56:47.353Z,102625.44
2023-05-18T05:01:51.277Z,102635.72
2023-05-18T05:06:53.944Z,102642.75
2023-05-18T05:11:56.565Z,102649.16
2023-05-18T05:17:03.038Z,102654.59
2023-05-18T05:22:06.099Z,102656.94
2023-05-18T05:27:08.637Z,102659.09
2023-05-18T05:32:13.084Z,102662.00
2023-05-18T05:37:15.687Z,102665.22
2023-05-18T05:42:18.231Z,102669.13
2023-05-18T05:47:22.086Z,102668.25
2023-05-18T05:52:24.613Z,102673.13
2023-05-18T05:57:27.131Z,102673.97
2023-05-18T06:02:31.267Z,102680.22
2023-05-18T06:07:33.974Z,102681.25
2023-05-18T06:12:36.510Z,102680.09
2023-05-18T06:17:41.175Z,102684.97
2023-05-18T06:22:44.663Z,102680.69
2023-05-18T06:27:47.536Z,102685.22
2023-05-18T06:32:51.438Z,102692.59
2023-05-18T06:37:54.067Z,102685.78
2023-05-18T06:42:56.645Z,102689.00
2023-05-18T06:48:00.594Z,102698.13
2023-05-18T06:53:04.458Z,102695.69
2023-05-18T06:58:07.002Z,102708.75
2023-05-18T07:03:11.091Z,102708.66
2023-05-18T07:08:13.937Z,102711.84
2023-05-18T07:13:16.499Z,102714.13
2023-05-18T07:18:20.442Z,102713.97
2023-05-18T07:23:23.420Z,102712.84
2023-05-18T07:28:26.173Z,102719.28
2023-05-18T07:33:30.041Z,102720.03
2023-05-18T07:38:32.574Z,102728.41
2023-05-18T07:43:35.109Z,102723.94
2023-05-18T07:48:40.845Z,102722.09
2023-05-18T07:53:45.897Z,102729.06
2023-05-18T07:58:48.463Z,102719.50
2023-05-18T08:03:52.595Z,102716.63
2023-05-18T08:08:56.624Z,102714.69
2023-05-18T08:13:59.150Z,102723.75
2023-05-18T08:19:03.047Z,102717.44
2023-05-18T08:24:05.953Z,102724.22
2023-05-18T08:29:10.544Z,102722.59
2023-05-18T08:34:14.481Z,102724.81
2023-05-18T08:39:17.005Z,102729.13
2023-05-18T08:44:23.189Z,102721.25
2023-05-18T08:49:28.349Z,102727.97
2023-05-18T08:54:31.870Z,102716.19
2023-05-18T08:59:37.738Z,102714.00
2023-05-18T09:04:44.872Z,102714.66
2023-05-18T09:09:48.530Z,102723.78
2023-05-18T09:14:52.361Z,102729.47
2023-05-18T09:19:56.419Z,102730.91
2023-05-18T09:24:59.130Z,102721.63
2023-05-18T09:30:01.985Z,102725.16
2023-05-18T09:35:07.173Z,102719.91
2023-05-18T09:40:10.333Z,102716.22
2023-05-18T09:45:18.806Z,102719.44
2023-05-18T09:50:23.090Z,102719.25
2023-05-18T09:55:25.919Z,102713.16
2023-05-18T10:00:28.729Z,102717.03
2023-05-18T10:05:35.879Z,102722.16
2023-05-18T10:10:40.149Z,102720.56
2023-05-18T10:15:48.778Z,102710.88
2023-05-18T10:20:54.643Z,102703.88
2023-05-18T10:25:58.258Z,102700.09
2023-05-18T10:31:01.484Z,102706.66
2023-05-18T10:36:06.889Z,102705.81
2023-05-18T10:41:12.596Z,102712.03
2023-05-18T10:46:16.971Z,102709.44
2023-05-18T10:51:22.060Z,102695.53
2023-05-18T10:56:24.938Z,102689.91
2023-05-18T11:01:27.835Z,102695.47
2023-05-18T11:06:33.614Z,102689.19
2023-05-18T11:11:52.010Z,102689.09
2023-05-18T11:16:54.965Z,102687.91
2023-05-18T11:21:58.885Z,102680.34
2023-05-18T11:27:04.030Z,102679.41
2023-05-18T11:32:29.800Z,102699.56
2023-05-18T11:37:50.562Z,102693.09
2023-05-18T11:42:59.217Z,102695.03
2023-05-18T11:48:03.105Z,102686.81
2023-05-18T11:53:07.052Z,102679.38
2023-05-18T11:58:10.327Z,102673.75
2023-05-18T12:03:14.113Z,102658.34
2023-05-18T12:08:19.873Z,102659.41
2023-05-18T12:13:24.596Z,102667.84
2023-05-18T12:18:29.494Z,102647.97
2023-05-18T12:23:39.682Z,102645.88
2023-05-18T12:28:42.248Z,102637.66
2023-05-18T12:33:45.143Z,102646.97
2023-05-18T12:38:52.666Z,102646.00
2023-05-18T12:43:55.634Z,102643.63
2023-05-18T12:49:01.427Z,102629.13
2023-05-18T12:54:06.360Z,102634.09
2023-05-18T12:59:08.895Z,102640.34
2023-05-18T13:04:12.323Z,102635.72
2023-05-18T13:09:16.867Z,102634.66
2023-05-18T13:14:23.433Z,102619.13
2023-05-18T13:19:27.225Z,102631.63
2023-05-18T13:24:32.025Z,102626.66
2023-05-18T13:29:34.920Z,102622.09
2023-05-18T13:34:37.460Z,102616.00
2023-05-18T13:39:41.366Z,102615.16
2023-05-18T13:44:43.936Z,102617.94
2023-05-18T13:49:46.455Z,102610.31
2023-05-18T13:54:50.333Z,102613.72
2023-05-18T13:59:53.695Z,102611.22
2023-05-18T14:04:56.757Z,102605.59
2023-05-18T14:10:00.645Z,102597.59
2023-05-18T14:15:04.054Z,102596.09
2023-05-18T14:20:08.143Z,102585.91
2023-05-18T14:25:12.221Z,102583.72
2023-05-18T14:30:15.038Z,102590.91
2023-05-18T14:35:18.016Z,102588.47
2023-05-18T14:40:21.991Z,102602.44
2023-05-18T14:45:24.536Z,102599.78
2023-05-18T14:50:27.074Z,102592.31
2023-05-18T14:55:31.009Z,102598.84
2023-05-18T15:00:33.874Z,102599.16
2023-05-18T15:05:37.404Z,102597.91
2023-05-18T15:10:41.305Z,102595.88
2023-05-18T15:15:43.887Z,102602.75
2023-05-18T15:20:46.798Z,102601.09
2023-05-18T15:25:51.314Z,102606.34
2023-05-18T15:30:54.481Z,102602.78
2023-05-18T15:35:57.133Z,102605.44
2023-05-18T15:41:01.087Z,102606.53
2023-05-18T15:46:03.806Z,102600.53
2023-05-18T15:51:07.453Z,102601.16
2023-05-18T15:56:11.512Z,102601.50
2023-05-18T16:01:14.111Z,102599.94
2023-05-18T16:06:16.713Z,102590.88
2023-05-18T16:11:21.522Z,102591.88
2023-05-18T16:16:24.160Z,102599.81
2023-05-18T16:21:26.726Z,102594.63
2023-05-18T16:26:30.613Z,102594.59
2023-05-18T16:31:33.241Z,102595.63
2023-05-18T16:36:36.505Z,102587.72
2023-05-18T16:41:40.418Z,102593.69
2023-05-18T16:46:42.958Z,102600.59
2023-05-18T16:51:45.672Z,102594.16
2023-05-18T16:56:49.651Z,102598.75
2023-05-18T17:01:52.396Z,102596.31
2023-05-18T17:06:55.010Z,102592.84
2023-05-18T17:11:59.189Z,102588.50
2023-05-18T17:17:01.910Z,102597.94
2023-05-18T17:22:04.593Z,102599.25
2023-05-18T17:27:08.706Z,102607.88
2023-05-18T17:32:11.254Z,102609.09
2023-05-18T17:37:13.870Z,102605.91
2023-05-18T17:42:18.033Z,102613.31
2023-05-18T17:47:21.983Z,102611.19
2023-05-18T17:52:24.820Z,102623.88
2023-05-18T17:57:30.064Z,102613.44
2023-05-18T18:02:32.632Z,102611.19
2023-05-18T18:07:35.169Z,102617.09
2023-05-18T18:12:39.091Z,102615.78
2023-05-18T18:17:41.669Z,102617.53
2023-05-18T18:22:44.276Z,102615.16
2023-05-18T18:27:48.130Z,102627.34
2023-05-18T18:32:51.128Z,102628.59
2023-05-18T18:37:53.661Z,102635.00
2023-05-18T18:42:57.527Z,102636.53
2023-05-18T18:48:00.558Z,102630.44
2023-05-18T18:53:03.145Z,102629.88
2023-05-18T18:58:07.998Z,102634.88
2023-05-18T19:03:10.763Z,102647.47
2023-05-18T19:08:13.717Z,102647.69
2023-05-18T19:13:17.791Z,102658.34
2023-05-18T19:18:20.431Z,102652.00
2023-05-18T19:23:22.988Z,102654.72
2023-05-18T19:28:26.855Z,102658.66
2023-05-18T19:33:29.419Z,102666.50
2023-05-18T19:38:32.052Z,102663.34
2023-05-18T19:43:35.984Z,102672.50
2023-05-18T19:48:38.575Z,102666.94
2023-05-18T19:53:43.016Z,102665.09
2023-05-18T19:58:46.974Z,102676.31
2023-05-18T20:03:49.777Z,102664.75
2023-05-18T20:08:52.436Z,102678.19
2023-05-18T20:13:56.378Z,102674.84
2023-05-18T20:18:59.611Z,102673.66
2023-05-18T20:24:02.292Z,102670.53
2023-05-18T20:29:06.308Z,102674.97
2023-05-18T20:34:08.891Z,102686.13
2023-05-18T20:39:11.615Z,102696.13
2023-05-18T20:44:17.755Z,102685.59
2023-05-18T20:49:21.601Z,102683.69
2023-05-18T20:54:24.203Z,102696.00
2023-05-18T20:59:30.257Z,102680.19
2023-05-18T21:04:32.898Z,102687.78
2023-05-18T21:09:35.766Z,102686.44
2023-05-18T21:14:41.900Z,102697.78
2023-05-18T21:19:44.578Z,102698.31
2023-05-18T21:24:47.341Z,102699.81
2023-05-18T21:29:51.353Z,102701.44
2023-05-18T21:34:54.000Z,102706.16
2023-05-18T21:39:56.611Z,102700.63
2023-05-18T21:45:00.759Z,102715.59
2023-05-18T21:50:04.108Z,102719.19
2023-05-18T21:55:07.970Z,102708.28
2023-05-18T22:00:13.733Z,102708.97
2023-05-18T22:05:16.590Z,102713.78
2023-05-18T22:10:19.591Z,102703.91
2023-05-18T22:15:24.026Z,102701.78
2023-05-18T22:20:26.816Z,102708.72
2023-05-18T22:25:29.395Z,102708.72
2023-05-18T22:30:33.780Z,102712.88
2023-05-18T22:35:36.902Z,102706.50
2023-05-18T22:40:39.448Z,102700.75
2023-05-18T22:45:43.409Z,102708.47
2023-05-18T22:50:46.258Z,102714.50
2023-05-18T22:55:48.817Z,102703.59
2023-05-18T23:00:52.810Z,102710.38
2023-05-18T23:05:56.315Z,102709.59
2023-05-18T23:11:01.744Z,102708.53
2023-05-18T23:16:06.119Z,102710.88
2023-05-18T23:21:09.045Z,102709.16
2023-05-18T23:26:11.714Z,102707.63
2023-05-18T23:31:16.355Z,102697.91
2023-05-18T23:36:21.410Z,102700.53
2023-05-18T23:41:26.312Z,102695.28
2023-05-18T23:46:31.412Z,102698.06
2023-05-18T23:51:36.900Z,102689.78
2023-05-18T23:56:40.081Z,102693.16
